createdAt,value
2023-03-11T00:18:12.228Z,27.58
2023-03-11T00:56:13.596Z,25.77
2023-03-11T01:36:15.209Z,27.93
2023-03-11T01:37:15.236Z,27.95
2023-03-11T01:38:15.269Z,26.02
2023-03-11T01:39:15.314Z,28.16
2023-03-11T01:40:15.410Z,26.44
2023-03-11T01:41:15.740Z,25.00
2023-03-11T01:42:15.482Z,28.69
2023-03-11T01:43:15.477Z,27.30
2023-03-11T01:44:15.494Z,28.93
2023-03-11T01:45:15.533Z,27.18
2023-03-11T01:46:15.733Z,26.85
2023-03-11T01:47:15.613Z,28.55
2023-03-11T01:48:15.645Z,28.47
2023-03-11T01:49:15.694Z,28.63
2023-03-11T01:50:15.727Z,27.19
2023-03-11T01:51:15.761Z,27.29
2023-03-11T01:52:15.790Z,29.30
2023-03-11T01:53:15.834Z,29.02
2023-03-11T01:54:15.871Z,27.95
2023-03-11T01:55:15.915Z,27.83
2023-03-11T01:56:15.961Z,29.35
2023-03-11T01:57:16.015Z,28.73
2023-03-11T01:58:16.035Z,27.23
2023-03-11T01:59:16.094Z,27.87
2023-03-11T02:00:16.125Z,28.69
2023-03-11T02:01:16.190Z,28.36
2023-03-11T02:02:16.204Z,28.68
2023-03-11T02:03:16.264Z,29.61
2023-03-11T02:04:16.297Z,27.97
2023-03-11T02:05:16.334Z,29.64
2023-03-11T02:06:16.373Z,28.80
2023-03-11T02:07:16.426Z,28.40
2023-03-11T02:08:16.477Z,28.58
2023-03-11T02:09:16.519Z,27.14
2023-03-11T02:10:16.560Z,27.27
2023-03-11T02:11:17.239Z,27.40
2023-03-11T02:12:16.665Z,28.10
2023-03-11T02:13:16.693Z,27.91
2023-03-11T02:14:16.745Z,28.06
2023-03-11T02:15:16.823Z,29.17
2023-03-11T02:16:16.942Z,27.99
2023-03-11T02:17:16.868Z,28.52
2023-03-11T02:18:16.926Z,27.45
2023-03-11T02:19:16.965Z,27.15
2023-03-11T02:20:17.006Z,27.69
2023-03-11T02:21:17.040Z,26.72
2023-03-11T02:22:17.084Z,27.72
2023-03-11T02:23:17.206Z,28.30
2023-03-11T02:24:17.185Z,26.53
2023-03-11T02:25:17.255Z,26.90
2023-03-11T02:26:17.264Z,27.40
2023-03-11T02:27:17.308Z,28.41
2023-03-11T02:28:17.336Z,26.93
2023-03-11T02:29:17.383Z,27.89
2023-03-11T02:30:17.414Z,28.71
2023-03-11T02:31:17.528Z,30.05
2023-03-11T02:32:17.532Z,28.31
2023-03-11T02:33:17.629Z,28.36
2023-03-11T02:34:17.574Z,27.24
2023-03-11T02:35:17.627Z,26.92
2023-03-11T02:36:17.669Z,27.94
2023-03-11T02:37:17.698Z,29.22
2023-03-11T02:38:17.751Z,27.18
2023-03-11T02:39:17.823Z,25.62
2023-03-11T02:40:17.836Z,27.55
2023-03-11T02:41:17.879Z,25.73
2023-03-11T02:42:17.919Z,26.79
2023-03-11T02:43:17.970Z,25.25
2023-03-11T02:44:17.999Z,26.11
2023-03-11T02:45:18.110Z,27.16
2023-03-11T02:46:18.184Z,27.71
2023-03-11T02:47:18.126Z,28.04
2023-03-11T02:48:18.234Z,27.71
2023-03-11T02:49:18.203Z,26.13
2023-03-11T02:50:18.271Z,28.53
2023-03-11T02:51:18.287Z,28.17
2023-03-11T02:52:19.256Z,26.34
2023-03-11T02:53:18.471Z,27.22
2023-03-11T02:54:18.423Z,26.60
2023-03-11T02:55:18.468Z,25.45
2023-03-11T02:56:18.589Z,27.88
2023-03-11T02:57:18.551Z,26.23
2023-03-11T02:58:18.591Z,27.90
2023-03-11T02:59:18.637Z,27.54
2023-03-11T03:00:18.682Z,28.04
2023-03-11T03:01:18.788Z,29.01
2023-03-11T03:02:18.786Z,27.06
2023-03-11T03:03:18.814Z,28.34
2023-03-11T03:04:18.885Z,28.42
2023-03-11T03:05:18.911Z,29.08
2023-03-11T03:06:18.945Z,26.63
2023-03-11T03:07:18.989Z,25.80
2023-03-11T03:08:19.037Z,29.09
2023-03-11T03:09:19.085Z,27.48
2023-03-11T03:10:19.121Z,27.22
2023-03-11T03:11:19.167Z,28.39
2023-03-11T03:12:19.204Z,27.19
2023-03-11T03:13:19.247Z,27.06
2023-03-11T03:14:19.292Z,27.19
2023-03-11T03:15:19.352Z,27.23
2023-03-11T03:16:19.442Z,28.70
2023-03-11T03:17:19.456Z,28.33
2023-03-11T03:18:19.475Z,27.54
2023-03-11T03:19:20.264Z,27.20
2023-03-11T03:20:19.564Z,27.73
2023-03-11T03:21:19.656Z,28.08
2023-03-11T03:22:19.642Z,26.94
2023-03-11T03:23:19.702Z,25.89
2023-03-11T03:24:19.829Z,26.80
2023-03-11T03:25:19.793Z,27.44
2023-03-11T03:26:19.826Z,25.61
2023-03-11T03:27:19.869Z,25.49
2023-03-11T03:28:19.896Z,26.17
2023-03-11T03:29:19.936Z,27.63
2023-03-11T03:30:19.978Z,27.75
2023-03-11T03:31:20.054Z,26.91
2023-03-11T03:32:20.115Z,27.17
2023-03-11T03:33:20.090Z,27.66
2023-03-11T03:34:20.142Z,29.42
2023-03-11T03:35:20.179Z,27.36
2023-03-11T03:36:20.237Z,27.82
2023-03-11T03:37:20.256Z,26.83
2023-03-11T03:38:20.300Z,28.43
2023-03-11T03:39:20.436Z,28.24
2023-03-11T03:40:20.386Z,27.89
2023-03-11T03:41:20.423Z,28.33
2023-03-11T03:42:20.464Z,26.79
2023-03-11T03:43:20.499Z,28.09
2023-03-11T03:44:20.551Z,28.48
2023-03-11T03:45:20.605Z,28.45
2023-03-11T03:46:20.646Z,27.32
2023-03-11T03:47:20.757Z,27.68
2023-03-11T03:48:20.729Z,28.85
2023-03-11T03:49:20.761Z,25.27
2023-03-11T03:50:20.809Z,26.48
2023-03-11T03:51:20.854Z,27.22
2023-03-11T03:52:20.892Z,27.98
2023-03-11T03:53:20.942Z,27.77
2023-03-11T03:54:20.983Z,27.48
2023-03-11T03:55:21.029Z,25.76
2023-03-11T03:56:21.064Z,26.51
2023-03-11T03:57:21.108Z,26.93
2023-03-11T03:58:21.154Z,27.46
2023-03-11T03:59:21.205Z,29.38
2023-03-11T04:00:21.232Z,29.22
2023-03-11T04:01:21.792Z,27.40
2023-03-11T04:02:21.375Z,27.37
2023-03-11T04:03:21.394Z,27.04
2023-03-11T04:04:21.409Z,27.52
2023-03-11T04:05:21.459Z,28.33
2023-03-11T04:06:21.502Z,29.68
2023-03-11T04:07:21.546Z,29.35
2023-03-11T06:43:29.342Z,28.79
2023-03-11T06:49:28.928Z,26.86
2023-03-11T06:50:29.010Z,28.12
2023-03-11T06:51:29.024Z,29.21
2023-03-11T06:52:29.085Z,26.47
2023-03-11T06:53:29.849Z,28.74
2023-03-11T06:54:29.180Z,28.03
2023-03-11T06:55:29.841Z,27.96
2023-03-11T06:56:29.282Z,27.59
2023-03-11T06:57:29.335Z,26.37
2023-03-11T06:58:29.380Z,27.23
2023-03-11T06:59:29.427Z,27.09
2023-03-11T07:00:29.476Z,26.94
2023-03-11T07:01:29.535Z,26.52
2023-03-11T07:02:29.574Z,26.40
2023-03-11T07:03:29.612Z,25.96
2023-03-11T07:04:29.657Z,26.06
2023-03-11T07:05:29.713Z,25.96
2023-03-11T07:06:29.758Z,25.25
2023-03-11T07:07:29.818Z,27.88
2023-03-11T07:08:29.849Z,25.84
2023-03-11T07:09:29.899Z,28.47
2023-03-11T07:10:30.086Z,27.17
2023-03-11T07:11:29.992Z,29.34
2023-03-11T07:12:30.085Z,29.03
2023-03-11T07:13:30.847Z,28.31
2023-03-11T07:14:30.133Z,25.95
2023-03-11T07:15:30.189Z,30.24
2023-03-11T07:16:30.266Z,27.80
2023-03-11T07:17:30.287Z,26.99
2023-03-11T07:18:30.339Z,28.21
2023-03-11T07:19:30.398Z,26.46
2023-03-11T07:20:30.542Z,27.67
2023-03-11T07:21:30.497Z,26.37
2023-03-11T07:22:30.549Z,27.39
2023-03-11T07:23:30.613Z,28.03
2023-03-11T07:24:30.644Z,25.69
2023-03-11T07:25:30.724Z,29.21
2023-03-11T07:26:30.752Z,27.81
2023-03-11T07:27:30.804Z,27.26
2023-03-11T07:28:30.861Z,25.91
2023-03-11T07:29:30.902Z,27.55
2023-03-11T07:30:30.952Z,27.50
2023-03-11T07:31:31.060Z,26.67
2023-03-11T07:32:31.083Z,26.00
2023-03-11T07:33:33.807Z,28.55
2023-03-11T07:34:31.122Z,29.87
2023-03-11T07:35:31.138Z,29.25
2023-03-11T07:36:31.137Z,29.55
2023-03-11T07:37:31.368Z,25.94
2023-03-11T07:38:31.872Z,28.07
2023-03-11T07:39:31.180Z,29.43
2023-03-11T07:40:31.200Z,27.92
2023-03-11T07:41:31.206Z,27.22
2023-03-11T07:42:31.233Z,27.85
2023-03-11T07:43:31.238Z,26.75
2023-03-11T07:44:31.334Z,28.27
2023-03-11T07:45:31.258Z,27.64
2023-03-11T07:46:31.406Z,26.43
2023-03-11T07:47:31.303Z,27.30
2023-03-11T07:48:31.296Z,25.67
2023-03-11T07:49:31.322Z,27.84
2023-03-11T07:50:31.336Z,29.58
2023-03-11T07:51:31.358Z,27.25
2023-03-11T07:52:31.379Z,28.98
2023-03-11T07:53:31.457Z,29.60
2023-03-11T07:54:31.412Z,28.77
2023-03-11T07:55:31.427Z,27.69
2023-03-11T07:56:31.444Z,28.88
2023-03-11T07:57:31.454Z,28.45
2023-03-11T07:58:31.505Z,27.19
2023-03-11T07:59:31.507Z,27.50
2023-03-11T08:00:31.522Z,25.78
2023-03-11T08:01:31.548Z,28.42
2023-03-11T08:02:31.589Z,28.91
2023-03-11T08:03:31.585Z,28.16
2023-03-11T08:04:31.593Z,28.94
2023-03-11T08:05:31.607Z,28.11
2023-03-11T08:06:31.637Z,27.60
2023-03-11T08:07:31.639Z,27.16
2023-03-11T08:08:31.653Z,26.14
2023-03-11T08:09:31.668Z,26.92
2023-03-11T08:10:31.683Z,27.75
2023-03-11T08:11:31.702Z,27.70
2023-03-11T08:12:31.724Z,26.86
2023-03-11T08:13:31.735Z,25.77
2023-03-11T08:14:31.779Z,26.93
2023-03-11T08:15:31.774Z,29.34
2023-03-11T08:16:31.789Z,28.50
2023-03-11T08:17:31.807Z,28.54
2023-03-11T08:18:31.816Z,27.29
2023-03-11T08:19:31.845Z,26.67
2023-03-11T08:20:31.833Z,28.91
2023-03-11T08:21:31.928Z,29.58
2023-03-11T08:22:31.862Z,28.75
2023-03-11T08:23:31.880Z,26.71
2023-03-11T08:24:31.882Z,26.68
2023-03-11T08:25:31.906Z,26.95
2023-03-11T08:26:31.939Z,27.88
2023-03-11T08:27:31.936Z,27.31
2023-03-11T08:28:31.944Z,27.23
2023-03-11T08:29:31.946Z,29.13
2023-03-11T08:30:31.964Z,27.00
2023-03-11T08:31:32.078Z,27.03
2023-03-11T08:32:32.074Z,26.11
2023-03-11T08:33:32.114Z,28.19
2023-03-11T08:34:32.158Z,27.08
2023-03-11T08:35:32.268Z,28.51
2023-03-11T08:36:32.244Z,26.92
2023-03-11T08:37:32.306Z,27.86
2023-03-11T08:38:32.364Z,27.67
2023-03-11T08:39:32.398Z,29.46
2023-03-11T08:40:32.441Z,28.68
2023-03-11T08:41:32.501Z,29.51
2023-03-11T08:42:32.532Z,29.29
2023-03-11T08:43:32.587Z,26.58
2023-03-11T08:44:32.632Z,27.86
2023-03-11T08:45:32.663Z,28.43
2023-03-11T08:46:32.760Z,28.16
2023-03-11T08:47:32.713Z,26.85
2023-03-11T08:48:32.747Z,27.79
2023-03-11T08:49:32.776Z,28.58
2023-03-11T08:50:47.335Z,28.47
2023-03-11T08:51:33.818Z,28.74
2023-03-11T08:52:32.911Z,29.08
2023-03-11T08:53:32.828Z,29.12
2023-03-11T08:54:32.836Z,29.57
2023-03-11T08:55:32.851Z,28.23
2023-03-11T08:56:32.855Z,29.80
2023-03-11T08:57:32.859Z,28.72
2023-03-11T08:58:32.879Z,28.78
2023-03-11T08:59:32.940Z,27.82
2023-03-11T09:00:32.888Z,25.00
2023-03-11T09:01:32.898Z,28.13
2023-03-11T09:02:32.958Z,27.95
2023-03-11T09:03:32.926Z,26.45
2023-03-11T09:04:32.932Z,27.95
2023-03-11T09:05:33.008Z,28.47
2023-03-11T09:06:32.953Z,28.23
2023-03-11T09:07:32.962Z,28.53
2023-03-11T09:08:33.014Z,29.55
2023-03-11T09:09:32.990Z,28.04
2023-03-11T09:10:32.989Z,28.47
2023-03-11T09:11:32.999Z,30.33
2023-03-11T09:12:33.013Z,28.58
2023-03-11T09:13:33.034Z,27.47
2023-03-11T09:14:33.119Z,29.26
2023-03-11T09:15:33.061Z,29.19
2023-03-11T09:16:33.085Z,26.74
2023-03-11T09:17:33.074Z,26.42
2023-03-11T09:18:33.086Z,29.83
2023-03-11T09:19:33.106Z,26.28
2023-03-11T09:20:33.113Z,27.90
2023-03-11T09:21:33.130Z,26.48
2023-03-11T09:22:33.143Z,28.55
2023-03-11T09:23:33.147Z,30.16
2023-03-11T09:24:33.402Z,26.67
2023-03-11T09:25:33.221Z,25.18
2023-03-11T09:26:33.211Z,28.93
2023-03-11T09:27:33.193Z,28.30
2023-03-11T09:28:33.212Z,28.28
2023-03-11T09:29:33.215Z,25.74
2023-03-11T09:30:33.227Z,27.27
2023-03-11T09:31:33.294Z,26.18
2023-03-11T09:32:33.302Z,26.69
2023-03-11T09:33:33.266Z,26.38
2023-03-11T09:34:33.411Z,26.36
2023-03-11T09:35:33.354Z,28.03
2023-03-11T09:36:33.382Z,27.41
2023-03-11T09:37:33.426Z,26.56
2023-03-11T09:38:33.474Z,26.41
2023-03-11T09:39:33.525Z,26.76
2023-03-11T09:40:33.580Z,26.67
2023-03-11T09:41:35.410Z,27.64
2023-03-11T09:42:33.649Z,28.52
2023-03-11T09:43:33.656Z,29.58
2023-03-11T09:44:33.666Z,26.37
2023-03-11T09:45:33.674Z,26.39
2023-03-11T09:46:33.705Z,27.27
2023-03-11T09:47:33.711Z,27.42
2023-03-11T09:48:33.712Z,29.33
2023-03-11T09:49:33.725Z,27.27
2023-03-11T09:50:33.726Z,26.64
2023-03-11T09:51:33.728Z,27.49
2023-03-11T09:52:33.757Z,26.72
2023-03-11T09:53:33.772Z,27.73
2023-03-11T09:54:33.913Z,28.02
2023-03-11T09:55:33.787Z,27.81
2023-03-11T09:56:33.846Z,28.87
2023-03-11T09:57:33.820Z,26.64
2023-03-11T09:58:33.812Z,27.82
2023-03-11T09:59:33.809Z,27.89
2023-03-11T10:00:33.822Z,29.35
2023-03-11T10:01:33.827Z,28.08
2023-03-11T10:02:33.982Z,26.68
2023-03-11T10:03:33.842Z,27.67
2023-03-11T10:04:33.854Z,27.68
2023-03-11T10:05:33.866Z,26.95
2023-03-11T10:06:33.881Z,29.02
2023-03-11T10:07:33.963Z,27.37
2023-03-11T10:08:33.896Z,31.62
2023-03-11T10:09:33.907Z,27.59
2023-03-11T10:10:33.978Z,26.94
2023-03-11T10:11:33.936Z,29.57
2023-03-11T10:12:33.969Z,28.80
2023-03-11T10:13:33.973Z,27.17
2023-03-11T10:14:34.417Z,28.34
2023-03-11T10:15:34.000Z,26.76
2023-03-11T10:16:34.042Z,28.46
2023-03-11T10:17:34.031Z,25.77
2023-03-11T10:18:34.072Z,28.28
2023-03-11T10:20:34.086Z,28.29
2023-03-11T10:21:34.092Z,29.16
2023-03-11T10:22:34.117Z,28.45
2023-03-11T10:23:34.136Z,29.06
2023-03-11T10:24:34.152Z,29.09
2023-03-11T10:25:34.172Z,28.48
2023-03-11T10:26:34.188Z,27.51
2023-03-11T10:27:34.202Z,28.49
2023-03-11T10:28:34.219Z,28.31
2023-03-11T10:29:34.230Z,27.85
2023-03-11T10:30:34.254Z,30.26
2023-03-11T10:31:34.320Z,28.73
2023-03-11T10:32:34.321Z,28.93
2023-03-11T10:33:34.297Z,29.06
2023-03-11T10:34:34.314Z,29.37
2023-03-11T10:35:34.348Z,29.41
2023-03-11T10:36:34.342Z,28.37
2023-03-11T10:37:48.292Z,27.75
2023-03-11T10:38:35.365Z,27.93
2023-03-11T10:39:34.390Z,28.03
2023-03-11T10:40:34.395Z,28.31
2023-03-11T10:41:34.404Z,29.25
2023-03-11T10:42:34.470Z,28.33
2023-03-11T10:43:34.436Z,29.18
2023-03-11T12:27:38.927Z,26.80
2023-03-11T12:28:38.969Z,27.58
2023-03-11T12:29:39.020Z,25.67
2023-03-11T12:30:39.081Z,26.31
2023-03-11T12:31:39.171Z,25.19
2023-03-11T12:32:39.202Z,27.50
2023-03-11T12:33:39.229Z,26.92
2023-03-11T12:34:39.277Z,26.58
2023-03-11T12:35:39.347Z,26.20
2023-03-11T12:36:39.381Z,26.75
2023-03-11T12:37:39.435Z,27.82
2023-03-11T12:38:39.480Z,27.62
2023-03-11T12:39:39.535Z,28.00
2023-03-11T12:40:39.581Z,29.11
2023-03-11T12:41:39.644Z,25.33
2023-03-11T12:42:39.690Z,27.66
2023-03-11T12:43:39.735Z,27.24
2023-03-11T12:44:39.794Z,27.74
2023-03-11T12:45:39.868Z,26.38
2023-03-11T12:46:39.967Z,26.83
2023-03-11T12:47:39.945Z,29.87
2023-03-11T12:48:40.011Z,27.22
2023-03-11T12:49:40.056Z,25.95
2023-03-11T12:50:40.101Z,26.69
2023-03-11T12:51:40.174Z,26.30
2023-03-11T12:52:40.202Z,25.83
2023-03-11T12:53:40.256Z,28.27
2023-03-11T12:54:40.309Z,25.95
2023-03-11T12:55:40.354Z,25.81
2023-03-11T12:56:40.456Z,25.65
2023-03-11T12:57:40.453Z,25.85
2023-03-11T12:58:40.486Z,27.41
2023-03-11T12:59:40.544Z,28.08
2023-03-11T13:00:40.604Z,27.18
2023-03-11T13:01:40.727Z,25.83
2023-03-11T13:02:40.731Z,27.32
2023-03-11T13:03:40.749Z,26.25
2023-03-11T13:04:40.799Z,27.18
2023-03-11T13:05:40.848Z,26.02
2023-03-11T13:06:40.904Z,30.13
2023-03-11T13:07:40.953Z,27.11
2023-03-11T13:08:40.996Z,25.00
2023-03-11T13:09:41.077Z,25.66
2023-03-11T13:10:41.090Z,26.14
2023-03-11T13:11:41.138Z,25.92
2023-03-11T13:12:41.196Z,26.51
2023-03-11T13:13:41.238Z,29.82
2023-03-11T13:14:41.296Z,27.52
2023-03-11T13:15:41.348Z,27.42
2023-03-11T13:16:41.453Z,27.57
2023-03-11T13:17:41.453Z,28.43
2023-03-11T13:18:41.511Z,29.24
2023-03-11T13:19:41.559Z,25.00
2023-03-11T13:20:41.601Z,29.31
2023-03-11T13:21:41.648Z,29.90
2023-03-11T13:22:41.761Z,25.47
2023-03-11T13:23:41.752Z,28.19
2023-03-11T13:24:41.808Z,28.39
2023-03-11T13:25:41.855Z,27.52
2023-03-11T13:26:41.931Z,27.76
2023-03-11T13:27:41.971Z,26.72
2023-03-11T13:28:42.013Z,28.48
2023-03-11T13:29:42.056Z,26.21
2023-03-11T13:30:42.109Z,26.64
2023-03-11T13:31:42.213Z,28.78
2023-03-11T13:32:43.047Z,27.12
2023-03-11T13:33:42.257Z,28.92
2023-03-11T13:34:42.312Z,28.34
2023-03-11T13:35:42.375Z,29.27
2023-03-11T13:36:42.413Z,27.37
2023-03-11T13:37:42.460Z,29.82
2023-03-11T13:38:42.505Z,28.42
2023-03-11T13:39:42.566Z,27.19
2023-03-11T13:40:42.727Z,27.63
2023-03-11T13:41:42.669Z,28.03
2023-03-11T13:42:42.720Z,26.43
2023-03-11T13:43:42.771Z,29.24
2023-03-11T13:44:42.836Z,30.41
2023-03-11T13:45:42.924Z,28.62
2023-03-11T13:46:42.942Z,29.03
2023-03-11T13:47:42.987Z,28.63
2023-03-11T13:48:43.040Z,29.11
2023-03-11T13:49:43.096Z,28.95
2023-03-11T13:50:43.166Z,26.56
2023-03-11T13:51:43.206Z,29.19
2023-03-11T13:52:43.254Z,26.11
2023-03-11T13:53:43.315Z,26.85
2023-03-11T13:54:43.351Z,29.63
2023-03-11T13:55:43.401Z,25.34
2023-03-11T13:56:43.458Z,27.26
2023-03-11T13:57:43.506Z,27.38
2023-03-11T13:58:43.561Z,27.93
2023-03-11T13:59:43.625Z,29.67
2023-03-11T14:00:43.696Z,29.87
2023-03-11T14:01:43.728Z,26.98
2023-03-11T14:02:43.790Z,27.58
2023-03-11T14:03:43.884Z,29.06
2023-03-11T14:04:44.020Z,28.05
2023-03-11T14:05:43.948Z,25.00
2023-03-11T14:06:43.986Z,25.56
2023-03-11T14:07:44.066Z,28.14
2023-03-11T14:08:44.106Z,28.19
2023-03-11T14:09:44.156Z,28.02
2023-03-11T14:10:44.203Z,26.13
2023-03-11T14:11:44.246Z,28.34
2023-03-11T14:12:44.343Z,29.74
2023-03-11T14:13:44.442Z,29.78
2023-03-11T14:14:44.427Z,26.77
2023-03-11T14:15:44.492Z,28.40
2023-03-11T14:16:44.777Z,27.16
2023-03-11T14:17:46.540Z,28.45
2023-03-11T14:18:44.620Z,27.07
2023-03-11T14:19:44.715Z,29.93
2023-03-11T14:21:44.669Z,28.24
2023-03-11T14:22:44.672Z,28.26
2023-03-11T14:23:44.703Z,27.89
2023-03-11T14:24:44.728Z,27.11
2023-03-11T14:25:44.734Z,28.33
2023-03-11T14:26:44.745Z,27.97
2023-03-11T14:27:44.767Z,30.65
2023-03-11T14:28:45.247Z,26.53
2023-03-11T14:29:44.801Z,29.40
2023-03-11T14:30:44.823Z,28.20
2023-03-11T14:31:44.888Z,30.99
2023-03-11T14:32:44.872Z,28.03
2023-03-11T14:33:44.879Z,29.45
2023-03-11T14:34:44.897Z,27.40
2023-03-11T14:35:44.980Z,28.47
2023-03-11T14:36:44.939Z,27.06
2023-03-11T16:14:48.938Z,38.62
2023-03-11T16:15:49.064Z,43.32
2023-03-11T16:16:49.082Z,39.39
2023-03-11T16:17:50.311Z,38.89
2023-03-11T16:18:49.184Z,39.75
2023-03-11T16:19:49.744Z,38.89
2023-03-11T16:20:49.307Z,39.48
2023-03-11T16:21:49.368Z,42.21
2023-03-11T16:22:49.425Z,40.90
2023-03-11T16:23:52.160Z,40.16
2023-03-11T16:24:49.497Z,41.72
2023-03-11T16:25:49.512Z,39.92
2023-03-11T16:26:49.533Z,42.25
2023-03-11T16:27:49.550Z,43.46
2023-03-11T16:28:49.571Z,41.81
2023-03-11T16:29:49.599Z,39.02
2023-03-11T16:30:49.637Z,39.92
2023-03-11T16:31:49.609Z,44.29
2023-03-11T16:32:49.694Z,42.29
2023-03-11T16:33:49.630Z,40.49
2023-03-11T16:34:49.646Z,38.76
2023-03-11T16:35:49.725Z,43.96
2023-03-11T16:36:49.749Z,41.42
2023-03-11T16:37:49.696Z,41.13
2023-03-11T16:38:49.783Z,43.27
2023-03-11T16:39:49.732Z,44.17
2023-03-11T16:40:49.738Z,40.73
2023-03-11T16:41:49.742Z,42.52
2023-03-11T16:42:49.758Z,42.23
2023-03-11T16:43:49.794Z,41.88
2023-03-11T16:44:49.791Z,45.27
2023-03-11T16:45:49.806Z,42.07
2023-03-11T16:46:49.896Z,44.21
2023-03-11T16:47:49.823Z,41.28
2023-03-11T16:48:49.831Z,43.09
2023-03-11T16:49:49.848Z,43.73
2023-03-11T16:50:49.870Z,42.58
2023-03-11T16:51:49.900Z,44.01
2023-03-11T16:52:49.903Z,43.15
2023-03-11T16:53:49.901Z,42.16
2023-03-11T16:54:49.917Z,42.05
2023-03-11T16:55:49.923Z,46.05
2023-03-11T16:56:49.941Z,42.25
2023-03-11T16:57:49.960Z,47.49
2023-03-11T16:58:49.961Z,45.32
2023-03-11T16:59:50.554Z,46.41
2023-03-11T17:00:49.995Z,43.91
2023-03-11T17:01:50.619Z,44.87
2023-03-11T17:02:50.025Z,41.58
2023-03-11T17:03:50.035Z,44.05
2023-03-11T17:04:50.612Z,45.43
2023-03-11T17:05:50.062Z,46.03
2023-03-11T17:06:50.088Z,43.94
2023-03-11T17:07:50.111Z,44.47
2023-03-11T17:08:50.080Z,45.78
2023-03-11T17:09:50.111Z,46.47
2023-03-11T17:10:50.116Z,45.98
2023-03-11T17:11:50.169Z,47.22
2023-03-11T17:12:50.316Z,43.96
2023-03-11T17:13:50.313Z,46.24
2023-03-11T17:14:50.379Z,44.25
2023-03-11T17:15:50.467Z,46.61
2023-03-11T17:16:50.526Z,44.57
2023-03-11T17:17:50.621Z,43.81
2023-03-11T17:18:50.668Z,45.95
2023-03-11T17:19:50.754Z,42.33
2023-03-11T17:20:50.814Z,43.91
2023-03-11T17:21:50.884Z,46.04
2023-03-11T17:22:50.958Z,42.82
2023-03-11T17:23:51.022Z,45.14
2023-03-11T17:24:51.091Z,44.29
2023-03-11T17:25:51.166Z,44.09
2023-03-11T17:26:51.228Z,43.64
2023-03-11T17:27:51.292Z,46.49
2023-03-11T17:28:51.364Z,46.20
2023-03-11T17:29:51.426Z,43.75
2023-03-11T17:30:51.489Z,48.07
2023-03-11T17:31:51.735Z,46.38
2023-03-11T17:32:51.653Z,43.75
2023-03-11T17:33:51.760Z,46.68
2023-03-11T17:34:51.754Z,43.15
2023-03-11T17:35:51.912Z,47.26
2023-03-11T17:36:51.898Z,44.17
2023-03-11T17:37:51.961Z,46.60
2023-03-11T17:38:52.031Z,47.97
2023-03-11T17:39:52.113Z,45.82
2023-03-11T17:40:52.169Z,44.41
2023-03-11T17:41:52.257Z,45.26
2023-03-11T17:42:52.299Z,45.30
2023-03-11T17:43:52.385Z,45.94
2023-03-11T17:44:52.438Z,45.86
2023-03-11T19:15:58.921Z,40.25
2023-03-11T19:16:59.094Z,40.78
2023-03-11T19:18:06.556Z,43.82
2023-03-11T19:19:00.094Z,43.87
2023-03-11T19:19:59.107Z,44.40
2023-03-11T19:20:59.119Z,41.87
2023-03-11T19:21:59.120Z,42.71
2023-03-11T19:22:59.149Z,42.87
2023-03-11T19:23:59.152Z,41.32
2023-03-11T19:24:59.158Z,39.06
2023-03-11T19:26:03.057Z,44.08
2023-03-11T19:26:59.183Z,44.11
2023-03-11T19:27:59.195Z,43.96
2023-03-11T19:28:59.214Z,43.75
2023-03-11T19:29:59.218Z,42.90
2023-03-11T19:30:59.257Z,41.79
2023-03-11T19:31:59.256Z,37.65
2023-03-11T19:32:59.298Z,40.57
2023-03-11T19:33:59.262Z,40.77
2023-03-11T19:34:59.275Z,40.28
2023-03-11T19:35:59.364Z,40.67
2023-03-11T19:36:59.300Z,44.48
2023-03-11T19:37:59.313Z,41.13
2023-03-11T19:38:59.339Z,41.57
2023-03-11T19:39:59.359Z,39.97
2023-03-11T19:40:59.362Z,40.32
2023-03-11T19:41:59.404Z,42.24
2023-03-11T19:42:59.445Z,38.52
2023-03-11T19:43:59.420Z,39.97
2023-03-11T19:44:59.421Z,37.03
2023-03-11T19:45:59.481Z,38.47
2023-03-11T19:46:59.488Z,40.76
2023-03-11T19:47:59.578Z,39.96
2023-03-11T19:48:59.653Z,38.49
2023-03-11T19:49:59.735Z,40.25
2023-03-11T19:51:00.654Z,38.78
2023-03-11T19:51:59.869Z,38.70
2023-03-11T19:52:59.930Z,40.36
2023-03-11T19:54:00.652Z,40.91
2023-03-11T21:53:08.990Z,34.40
2023-03-11T21:54:09.029Z,34.75
2023-03-11T21:55:09.205Z,38.49
2023-03-11T21:56:09.730Z,36.89
2023-03-11T21:57:09.355Z,35.89
2023-03-11T21:58:09.339Z,35.76
2023-03-11T21:59:09.474Z,35.38
2023-03-11T22:00:09.509Z,37.39
2023-03-11T23:04:14.549Z,36.72
2023-03-11T23:25:16.145Z,34.17
2023-03-11T23:56:19.222Z,34.13
